CMA CGM Volga — 5BJR2 — position and weather

sailwx.info

Track history (hours):
 
Tides and Currents Weather Stations Pressure Air Temp Water Temp Dewpoint Dewpoint Depression Visibility Wind Speed Wind Dir Waves Ship Positions

CMA CGM Volga

Last reported at 2015-Mar-26 16:14 UTC. Time now 2015-Mar-27 07:01 UTC.
Position N 59°38' E 023°24'.

Length 184 m; draft 9.1 m.

Type: Cargo ship. MMSI: 212456000.

Date/timePositionNaut miles runAvg speedWind from/ knotsBaromVisibWave heightAir tempDewpointWater temp
2015-Mar-26 16:14N 59°38' E 023°24'1513.8
2015-Mar-26 15:10N 59°42' E 023°52'1413.7
2015-Mar-26 14:07N 59°45' E 024°20'812.3
2015-Mar-26 13:27N 59°43' E 024°35'1213.5
2015-Mar-26 12:34N 59°35' E 024°53'4 0.3
2015-Mar-25 22:33N 59°32' E 024°57'4 4.1
2015-Mar-25 21:33N 59°35' E 024°53'1313.3
2015-Mar-25 20:33N 59°43' E 024°32'33613.4
2015-Mar-24 19:25N 54°54' E 019°16'1315.5
2015-Mar-24 18:33N 54°41' E 019°10'1716.6
2015-Mar-24 17:33N 54°26' E 018°58'9 8.9
2015-Mar-24 16:33N 54°23' E 018°43'0 0.0
2015-Mar-24 15:33N 54°23' E 018°43'0 0.0
2015-Mar-24 14:33N 54°23' E 018°43'0 0.0
2015-Mar-24 13:33N 54°23' E 018°43'0 0.0
2015-Mar-24 12:30N 54°23' E 018°43'0 0.0
2015-Mar-24 11:33N 54°23' E 018°43'0 0.0
2015-Mar-24 10:33N 54°23' E 018°43'0 0.0
2015-Mar-24 09:30N 54°23' E 018°43'0 0.0
2015-Mar-24 08:33N 54°23' E 018°43'0 0.0
2015-Mar-24 07:33N 54°23' E 018°43'0 0.0
2015-Mar-24 06:30N 54°23' E 018°43'0 0.0
2015-Mar-24 05:33N 54°23' E 018°43'0 0.0
2015-Mar-24 04:33N 54°23' E 018°43'0 0.0
2015-Mar-24 03:33N 54°23' E 018°43'0 0.0
2015-Mar-24 02:30N 54°23' E 018°43'0 0.0
2015-Mar-24 01:30N 54°23' E 018°43'0 0.0
2015-Mar-24 00:24N 54°23' E 018°43'0 0.0
2015-Mar-23 23:27N 54°23' E 018°43'0 0.0
2015-Mar-23 22:27N 54°23' E 018°43'0 0.0
2015-Mar-23 21:33N 54°23' E 018°43'1 1.2
2015-Mar-23 20:33N 54°24' E 018°44'10 9.9
2015-Mar-23 19:33N 54°30' E 018°58'1010.3
2015-Mar-23 18:34N 54°40' E 019°03'1312.5
2015-Mar-23 17:34N 54°52' E 019°10'1414.1
2015-Mar-23 16:33N 55°05' E 019°18'  
2015-Mar-20 10:27N 59°36' E 023°11'1312.9
2015-Mar-20 09:25N 59°40' E 023°37'2512.7
2015-Mar-20 07:26N 59°45' E 024°25'1112.3
2015-Mar-20 06:33N 59°40' E 024°44'10 0.7
2015-Mar-19 15:23N 59°32' E 024°57'1012.4
2015-Mar-19 14:33N 59°39' E 024°44'1212.1
2015-Mar-19 13:33N 59°42' E 024°20'1413.4
2015-Mar-19 12:28N 59°37' E 023°53'1313.7
2015-Mar-19 11:32N 59°33' E 023°29'26313.8
2015-Mar-18 16:27N 55°50' E 019°09'4513.6
2015-Mar-18 13:06N 55°05' E 019°06'713.8
2015-Mar-18 12:33N 54°57' E 019°05'1414.1
2015-Mar-18 11:33N 54°43' E 019°05'1413.9
2015-Mar-18 10:33N 54°30' E 019°02'1211.8
2015-Mar-18 09:33N 54°24' E 018°44'1 1.0
2015-Mar-18 08:33N 54°23' E 018°43'0 0.0
2015-Mar-18 07:24N 54°23' E 018°43'0 0.0
2015-Mar-18 06:30N 54°23' E 018°43'0 0.0
2015-Mar-18 05:33N 54°23' E 018°43'0 0.0
2015-Mar-18 04:33N 54°23' E 018°43'0 0.0
2015-Mar-18 03:33N 54°23' E 018°43'0 0.0
2015-Mar-18 02:33N 54°23' E 018°43'0 0.0
2015-Mar-18 01:30N 54°23' E 018°43'0 0.0
2015-Mar-18 00:33N 54°23' E 018°43'0 0.0
2015-Mar-17 23:34N 54°23' E 018°43'0 0.0
2015-Mar-17 22:27N 54°23' E 018°43'0 0.0
2015-Mar-17 21:33N 54°23' E 018°43'0 0.0
2015-Mar-17 20:33N 54°23' E 018°43'0 0.0
2015-Mar-17 19:33N 54°23' E 018°43'0 0.0
2015-Mar-17 18:31N 54°23' E 018°43'0 0.0
2015-Mar-17 17:30N 54°23' E 018°43'0 0.0
2015-Mar-17 16:27N 54°23' E 018°43'0 0.0
2015-Mar-17 15:33N 54°23' E 018°43'0 0.0
2015-Mar-17 14:33N 54°23' E 018°43'0 0.0
2015-Mar-17 13:30N 54°23' E 018°43'0 0.0
2015-Mar-17 12:30N 54°23' E 018°43'0 0.0
2015-Mar-17 11:32N 54°23' E 018°43'0 0.0
2015-Mar-17 10:30N 54°23' E 018°43'0 0.0
2015-Mar-17 09:29N 54°23' E 018°43'0 0.0
2015-Mar-17 08:32N 54°23' E 018°43'5 5.5
2015-Mar-17 07:33N 54°26' E 018°51'7 7.3
2015-Mar-17 06:33N 54°31' E 018°60'1211.8
2015-Mar-17 05:33N 54°43' E 019°03'1414.0
2015-Mar-17 04:33N 54°56' E 019°12'1414.1
2015-Mar-17 03:33N 55°09' E 019°21'  
Track history (hours):
 
Tides and Currents Weather Stations Pressure Air Temp Water Temp Dewpoint Dewpoint Depression Visibility Wind Speed Wind Dir Waves Ship Positions

CMA CGM Volga

Last reported at 2015-Mar-26 16:14 UTC. Time now 2015-Mar-27 07:01 UTC.
Position N 59°38' E 023°24'.

Length 184 m; draft 9.1 m.

Type: Cargo ship. MMSI: 212456000.

Date/timePositionNaut miles runAvg speedWind from/ knotsBaromVisibWave heightAir tempDewpointWater temp
2015-Mar-26 16:14N 59°38' E 023°24'1513.8
2015-Mar-26 15:10N 59°42' E 023°52'1413.7
2015-Mar-26 14:07N 59°45' E 024°20'812.3
2015-Mar-26 13:27N 59°43' E 024°35'1213.5
2015-Mar-26 12:34N 59°35' E 024°53'4 0.3
2015-Mar-25 22:33N 59°32' E 024°57'4 4.1
2015-Mar-25 21:33N 59°35' E 024°53'1313.3
2015-Mar-25 20:33N 59°43' E 024°32'33613.4
2015-Mar-24 19:25N 54°54' E 019°16'1315.5
2015-Mar-24 18:33N 54°41' E 019°10'1716.6
2015-Mar-24 17:33N 54°26' E 018°58'9 8.9
2015-Mar-24 16:33N 54°23' E 018°43'0 0.0
2015-Mar-24 15:33N 54°23' E 018°43'0 0.0
2015-Mar-24 14:33N 54°23' E 018°43'0 0.0
2015-Mar-24 13:33N 54°23' E 018°43'0 0.0
2015-Mar-24 12:30N 54°23' E 018°43'0 0.0
2015-Mar-24 11:33N 54°23' E 018°43'0 0.0
2015-Mar-24 10:33N 54°23' E 018°43'0 0.0
2015-Mar-24 09:30N 54°23' E 018°43'0 0.0
2015-Mar-24 08:33N 54°23' E 018°43'0 0.0
2015-Mar-24 07:33N 54°23' E 018°43'0 0.0
2015-Mar-24 06:30N 54°23' E 018°43'0 0.0
2015-Mar-24 05:33N 54°23' E 018°43'0 0.0
2015-Mar-24 04:33N 54°23' E 018°43'0 0.0
2015-Mar-24 03:33N 54°23' E 018°43'0 0.0
2015-Mar-24 02:30N 54°23' E 018°43'0 0.0
2015-Mar-24 01:30N 54°23' E 018°43'0 0.0
2015-Mar-24 00:24N 54°23' E 018°43'0 0.0
2015-Mar-23 23:27N 54°23' E 018°43'0 0.0
2015-Mar-23 22:27N 54°23' E 018°43'0 0.0
2015-Mar-23 21:33N 54°23' E 018°43'1 1.2
2015-Mar-23 20:33N 54°24' E 018°44'10 9.9
2015-Mar-23 19:33N 54°30' E 018°58'1010.3
2015-Mar-23 18:34N 54°40' E 019°03'1312.5
2015-Mar-23 17:34N 54°52' E 019°10'1414.1
2015-Mar-23 16:33N 55°05' E 019°18'  
2015-Mar-20 10:27N 59°36' E 023°11'1312.9
2015-Mar-20 09:25N 59°40' E 023°37'2512.7
2015-Mar-20 07:26N 59°45' E 024°25'1112.3
2015-Mar-20 06:33N 59°40' E 024°44'10 0.7
2015-Mar-19 15:23N 59°32' E 024°57'1012.4
2015-Mar-19 14:33N 59°39' E 024°44'1212.1
2015-Mar-19 13:33N 59°42' E 024°20'1413.4
2015-Mar-19 12:28N 59°37' E 023°53'1313.7
2015-Mar-19 11:32N 59°33' E 023°29'26313.8
2015-Mar-18 16:27N 55°50' E 019°09'4513.6
2015-Mar-18 13:06N 55°05' E 019°06'713.8
2015-Mar-18 12:33N 54°57' E 019°05'1414.1
2015-Mar-18 11:33N 54°43' E 019°05'1413.9
2015-Mar-18 10:33N 54°30' E 019°02'1211.8
2015-Mar-18 09:33N 54°24' E 018°44'1 1.0
2015-Mar-18 08:33N 54°23' E 018°43'0 0.0
2015-Mar-18 07:24N 54°23' E 018°43'0 0.0
2015-Mar-18 06:30N 54°23' E 018°43'0 0.0
2015-Mar-18 05:33N 54°23' E 018°43'0 0.0
2015-Mar-18 04:33N 54°23' E 018°43'0 0.0
2015-Mar-18 03:33N 54°23' E 018°43'0 0.0
2015-Mar-18 02:33N 54°23' E 018°43'0 0.0
2015-Mar-18 01:30N 54°23' E 018°43'0 0.0
2015-Mar-18 00:33N 54°23' E 018°43'0 0.0
2015-Mar-17 23:34N 54°23' E 018°43'0 0.0
2015-Mar-17 22:27N 54°23' E 018°43'0 0.0
2015-Mar-17 21:33N 54°23' E 018°43'0 0.0
2015-Mar-17 20:33N 54°23' E 018°43'0 0.0
2015-Mar-17 19:33N 54°23' E 018°43'0 0.0
2015-Mar-17 18:31N 54°23' E 018°43'0 0.0
2015-Mar-17 17:30N 54°23' E 018°43'0 0.0
2015-Mar-17 16:27N 54°23' E 018°43'0 0.0
2015-Mar-17 15:33N 54°23' E 018°43'0 0.0
2015-Mar-17 14:33N 54°23' E 018°43'0 0.0
2015-Mar-17 13:30N 54°23' E 018°43'0 0.0
2015-Mar-17 12:30N 54°23' E 018°43'0 0.0
2015-Mar-17 11:32N 54°23' E 018°43'0 0.0
2015-Mar-17 10:30N 54°23' E 018°43'0 0.0
2015-Mar-17 09:29N 54°23' E 018°43'0 0.0
2015-Mar-17 08:32N 54°23' E 018°43'5 5.5
2015-Mar-17 07:33N 54°26' E 018°51'7 7.3
2015-Mar-17 06:33N 54°31' E 018°60'1211.8
2015-Mar-17 05:33N 54°43' E 019°03'1414.0
2015-Mar-17 04:33N 54°56' E 019°12'1414.1
2015-Mar-17 03:33N 55°09' E 019°21'  

Dump ship's entire track history